sensor_id;sensor_type;location;lat;lon;timestamp;pressure;altitude;pressure_sealevel;temperature
74536;BMP180;63013;51.104;-115.370;2023-02-01T00:01:37;86336.20;;;22.90
74536;BMP180;63013;51.104;-115.370;2023-02-01T00:04:04;86330.80;;;22.90
74536;BMP180;63013;51.104;-115.370;2023-02-01T00:06:35;86336.40;;;22.90
74536;BMP180;63013;51.104;-115.370;2023-02-01T00:09:02;86336.80;;;22.82
74536;BMP180;63013;51.104;-115.370;2023-02-01T00:11:30;86339.00;;;22.80
74536;BMP180;63013;51.104;-115.370;2023-02-01T00:13:57;86330.80;;;22.80
74536;BMP180;63013;51.104;-115.370;2023-02-01T00:16:29;86329.40;;;22.80
74536;BMP180;63013;51.104;-115.370;2023-02-01T00:19:05;86333.60;;;22.80
74536;BMP180;63013;51.104;-115.370;2023-02-01T00:21:33;86329.40;;;22.78
74536;BMP180;63013;51.104;-115.370;2023-02-01T00:24:00;86322.60;;;22.70
74536;BMP180;63013;51.104;-115.370;2023-02-01T00:26:43;86321.40;;;22.70
74536;BMP180;63013;51.104;-115.370;2023-02-01T00:29:22;86331.80;;;22.70
74536;BMP180;63013;51.104;-115.370;2023-02-01T00:31:51;86329.80;;;22.70
74536;BMP180;63013;51.104;-115.370;2023-02-01T00:34:19;86329.20;;;22.64
74536;BMP180;63013;51.104;-115.370;2023-02-01T00:36:50;86334.00;;;22.60
74536;BMP180;63013;51.104;-115.370;2023-02-01T00:39:20;86335.60;;;22.60
74536;BMP180;63013;51.104;-115.370;2023-02-01T00:41:47;86327.40;;;22.60
74536;BMP180;63013;51.104;-115.370;2023-02-01T00:44:15;86331.20;;;22.60
74536;BMP180;63013;51.104;-115.370;2023-02-01T00:46:42;86324.60;;;22.54
74536;BMP180;63013;51.104;-115.370;2023-02-01T00:49:12;86334.40;;;22.50
74536;BMP180;63013;51.104;-115.370;2023-02-01T00:51:39;86336.80;;;22.50
74536;BMP180;63013;51.104;-115.370;2023-02-01T00:54:06;86330.00;;;22.50
74536;BMP180;63013;51.104;-115.370;2023-02-01T00:56:34;86338.40;;;22.50
74536;BMP180;63013;51.104;-115.370;2023-02-01T00:59:04;86341.00;;;22.42
74536;BMP180;63013;51.104;-115.370;2023-02-01T01:01:53;86337.40;;;22.40
74536;BMP180;63013;51.104;-115.370;2023-02-01T01:04:19;86337.60;;;22.40
74536;BMP180;63013;51.104;-115.370;2023-02-01T01:06:46;86336.40;;;22.40
74536;BMP180;63013;51.104;-115.370;2023-02-01T01:09:13;86341.00;;;22.40
74536;BMP180;63013;51.104;-115.370;2023-02-01T01:11:41;86345.20;;;22.32
74536;BMP180;63013;51.104;-115.370;2023-02-01T01:14:08;86343.00;;;22.30
74536;BMP180;63013;51.104;-115.370;2023-02-01T01:16:36;86350.00;;;22.30
74536;BMP180;63013;51.104;-115.370;2023-02-01T01:19:03;86348.40;;;22.30
74536;BMP180;63013;51.104;-115.370;2023-02-01T01:21:31;86345.00;;;22.30
74536;BMP180;63013;51.104;-115.370;2023-02-01T01:23:59;86353.60;;;22.24
74536;BMP180;63013;51.104;-115.370;2023-02-01T01:26:29;86347.40;;;22.20
74536;BMP180;63013;51.104;-115.370;2023-02-01T01:28:58;86342.60;;;22.20
74536;BMP180;63013;51.104;-115.370;2023-02-01T01:31:27;86345.00;;;22.20
74536;BMP180;63013;51.104;-115.370;2023-02-01T01:33:58;86346.20;;;22.20
74536;BMP180;63013;51.104;-115.370;2023-02-01T01:36:27;86340.40;;;22.14
74536;BMP180;63013;51.104;-115.370;2023-02-01T01:38:55;86343.60;;;22.10
74536;BMP180;63013;51.104;-115.370;2023-02-01T01:41:28;86338.00;;;22.10
74536;BMP180;63013;51.104;-115.370;2023-02-01T01:44:02;86339.80;;;22.10
74536;BMP180;63013;51.104;-115.370;2023-02-01T01:46:38;86353.00;;;22.08
74536;BMP180;63013;51.104;-115.370;2023-02-01T01:49:21;86345.20;;;22.00
74536;BMP180;63013;51.104;-115.370;2023-02-01T01:51:56;86335.20;;;22.00
74536;BMP180;63013;51.104;-115.370;2023-02-01T01:54:31;86343.60;;;22.00
74536;BMP180;63013;51.104;-115.370;2023-02-01T01:57:06;86341.00;;;22.00
74536;BMP180;63013;51.104;-115.370;2023-02-01T01:59:38;86334.40;;;21.96
74536;BMP180;63013;51.104;-115.370;2023-02-01T02:02:06;86339.20;;;21.90
74536;BMP180;63013;51.104;-115.370;2023-02-01T02:04:35;86337.80;;;21.90
74536;BMP180;63013;51.104;-115.370;2023-02-01T02:07:14;86346.40;;;21.90
74536;BMP180;63013;51.104;-115.370;2023-02-01T02:09:43;86343.80;;;21.90
74536;BMP180;63013;51.104;-115.370;2023-02-01T02:12:10;86349.60;;;21.86
74536;BMP180;63013;51.104;-115.370;2023-02-01T02:14:38;86346.20;;;21.80
74536;BMP180;63013;51.104;-115.370;2023-02-01T02:17:44;86350.20;;;21.80
74536;BMP180;63013;51.104;-115.370;2023-02-01T02:20:52;86351.80;;;21.80
74536;BMP180;63013;51.104;-115.370;2023-02-01T02:27:02;86353.60;;;21.72
74536;BMP180;63013;51.104;-115.370;2023-02-01T02:32:47;86352.40;;;21.70
74536;BMP180;63013;51.104;-115.370;2023-02-01T02:35:36;86358.80;;;21.70
74536;BMP180;63013;51.104;-115.370;2023-02-01T02:38:40;86357.40;;;21.70
74536;BMP180;63013;51.104;-115.370;2023-02-01T02:53:28;86335.40;;;21.62
74536;BMP180;63013;51.104;-115.370;2023-02-01T02:56:17;86347.00;;;21.60
74536;BMP180;63013;51.104;-115.370;2023-02-01T02:59:06;86342.60;;;21.70
74536;BMP180;63013;51.104;-115.370;2023-02-01T03:01:52;86353.80;;;21.70
74536;BMP180;63013;51.104;-115.370;2023-02-01T03:04:41;86351.40;;;21.70
74536;BMP180;63013;51.104;-115.370;2023-02-01T03:07:54;86363.60;;;21.70
74536;BMP180;63013;51.104;-115.370;2023-02-01T03:13:56;86363.80;;;21.70
74536;BMP180;63013;51.104;-115.370;2023-02-01T03:16:50;86362.60;;;21.68
74536;BMP180;63013;51.104;-115.370;2023-02-01T03:19:50;86358.80;;;21.60
74536;BMP180;63013;51.104;-115.370;2023-02-01T03:22:27;86363.20;;;21.60
74536;BMP180;63013;51.104;-115.370;2023-02-01T03:25:14;86363.60;;;21.60
74536;BMP180;63013;51.104;-115.370;2023-02-01T03:28:04;86361.20;;;21.60
74536;BMP180;63013;51.104;-115.370;2023-02-01T03:30:46;86369.80;;;21.60
74536;BMP180;63013;51.104;-115.370;2023-02-01T03:33:22;86378.20;;;21.56
74536;BMP180;63013;51.104;-115.370;2023-02-01T03:36:40;86372.00;;;21.50
74536;BMP180;63013;51.104;-115.370;2023-02-01T03:42:44;86361.40;;;21.50
74536;BMP180;63013;51.104;-115.370;2023-02-01T03:45:27;86360.20;;;21.50
74536;BMP180;63013;51.104;-115.370;2023-02-01T03:48:02;86358.40;;;21.50
74536;BMP180;63013;51.104;-115.370;2023-02-01T03:50:35;86376.80;;;21.42
74536;BMP180;63013;51.104;-115.370;2023-02-01T03:53:17;86373.60;;;21.40
74536;BMP180;63013;51.104;-115.370;2023-02-01T03:55:46;86376.00;;;21.40
74536;BMP180;63013;51.104;-115.370;2023-02-01T03:58:19;86384.20;;;21.40
74536;BMP180;63013;51.104;-115.370;2023-02-01T04:00:56;86386.00;;;21.40
74536;BMP180;63013;51.104;-115.370;2023-02-01T04:03:28;86389.60;;;21.40
74536;BMP180;63013;51.104;-115.370;2023-02-01T04:06:08;86392.40;;;21.40
74536;BMP180;63013;51.104;-115.370;2023-02-01T04:08:35;86389.40;;;21.36
74536;BMP180;63013;51.104;-115.370;2023-02-01T04:11:02;86402.80;;;21.32
74536;BMP180;63013;51.104;-115.370;2023-02-01T04:13:30;86397.60;;;21.30
74536;BMP180;63013;51.104;-115.370;2023-02-01T04:16:00;86400.80;;;21.30
74536;BMP180;63013;51.104;-115.370;2023-02-01T04:18:28;86405.40;;;21.30
74536;BMP180;63013;51.104;-115.370;2023-02-01T04:20:58;86402.20;;;21.30
74536;BMP180;63013;51.104;-115.370;2023-02-01T04:23:25;86403.20;;;21.22
74536;BMP180;63013;51.104;-115.370;2023-02-01T04:25:53;86398.40;;;21.20
74536;BMP180;63013;51.104;-115.370;2023-02-01T04:28:45;86400.80;;;21.20
74536;BMP180;63013;51.104;-115.370;2023-02-01T04:31:15;86394.60;;;21.20
74536;BMP180;63013;51.104;-115.370;2023-02-01T04:34:14;86388.60;;;21.20
74536;BMP180;63013;51.104;-115.370;2023-02-01T04:36:52;86388.80;;;21.14
74536;BMP180;63013;51.104;-115.370;2023-02-01T04:39:54;86383.40;;;21.10
74536;BMP180;63013;51.104;-115.370;2023-02-01T04:42:31;86384.40;;;21.10
74536;BMP180;63013;51.104;-115.370;2023-02-01T04:45:01;86387.40;;;21.10
74536;BMP180;63013;51.104;-115.370;2023-02-01T04:47:29;86392.80;;;21.10
74536;BMP180;63013;51.104;-115.370;2023-02-01T04:50:05;86402.20;;;21.06
74536;BMP180;63013;51.104;-115.370;2023-02-01T04:52:43;86399.20;;;21.00
74536;BMP180;63013;51.104;-115.370;2023-02-01T04:55:41;86406.20;;;21.00
74536;BMP180;63013;51.104;-115.370;2023-02-01T04:58:19;86396.20;;;21.00
74536;BMP180;63013;51.104;-115.370;2023-02-01T05:01:06;86398.20;;;21.00
74536;BMP180;63013;51.104;-115.370;2023-02-01T05:03:39;86388.80;;;21.00
74536;BMP180;63013;51.104;-115.370;2023-02-01T05:06:07;86387.80;;;20.90
74536;BMP180;63013;51.104;-115.370;2023-02-01T05:08:34;86391.40;;;20.90
74536;BMP180;63013;51.104;-115.370;2023-02-01T05:11:02;86380.60;;;20.90
74536;BMP180;63013;51.104;-115.370;2023-02-01T05:13:30;86380.80;;;20.90
74536;BMP180;63013;51.104;-115.370;2023-02-01T05:16:16;86391.40;;;20.90
74536;BMP180;63013;51.104;-115.370;2023-02-01T05:18:44;86391.40;;;20.90
74536;BMP180;63013;51.104;-115.370;2023-02-01T05:21:11;86388.80;;;20.80
74536;BMP180;63013;51.104;-115.370;2023-02-01T05:23:48;86385.80;;;20.80
74536;BMP180;63013;51.104;-115.370;2023-02-01T05:26:37;86393.20;;;20.80
74536;BMP180;63013;51.104;-115.370;2023-02-01T05:29:10;86403.80;;;20.80
74536;BMP180;63013;51.104;-115.370;2023-02-01T05:31:41;86386.60;;;20.80
74536;BMP180;63013;51.104;-115.370;2023-02-01T05:34:14;86396.80;;;20.78
74536;BMP180;63013;51.104;-115.370;2023-02-01T05:36:47;86389.00;;;20.70
74536;BMP180;63013;51.104;-115.370;2023-02-01T05:39:14;86399.40;;;20.70
74536;BMP180;63013;51.104;-115.370;2023-02-01T05:41:42;86394.40;;;20.70
74536;BMP180;63013;51.104;-115.370;2023-02-01T05:44:15;86392.20;;;20.70
74536;BMP180;63013;51.104;-115.370;2023-02-01T05:46:51;86401.80;;;20.70
74536;BMP180;63013;51.104;-115.370;2023-02-01T05:49:18;86397.60;;;20.70
74536;BMP180;63013;51.104;-115.370;2023-02-01T05:51:46;86406.00;;;20.64
74536;BMP180;63013;51.104;-115.370;2023-02-01T05:54:13;86404.00;;;20.60
74536;BMP180;63013;51.104;-115.370;2023-02-01T05:56:40;86406.40;;;20.60
74536;BMP180;63013;51.104;-115.370;2023-02-01T05:59:08;86410.60;;;20.60
74536;BMP180;63013;51.104;-115.370;2023-02-01T06:01:35;86405.60;;;20.60
74536;BMP180;63013;51.104;-115.370;2023-02-01T06:04:07;86405.40;;;20.60
74536;BMP180;63013;51.104;-115.370;2023-02-01T06:06:40;86391.00;;;20.60
74536;BMP180;63013;51.104;-115.370;2023-02-01T06:09:08;86400.00;;;20.54
74536;BMP180;63013;51.104;-115.370;2023-02-01T06:11:35;86401.40;;;20.50
74536;BMP180;63013;51.104;-115.370;2023-02-01T06:14:02;86402.00;;;20.50
74536;BMP180;63013;51.104;-115.370;2023-02-01T06:16:30;86408.20;;;20.50
74536;BMP180;63013;51.104;-115.370;2023-02-01T06:19:01;86410.20;;;20.50
74536;BMP180;63013;51.104;-115.370;2023-02-01T06:21:28;86404.60;;;20.44
74536;BMP180;63013;51.104;-115.370;2023-02-01T06:23:56;86411.60;;;20.40
74536;BMP180;63013;51.104;-115.370;2023-02-01T06:26:27;86422.60;;;20.40
74536;BMP180;63013;51.104;-115.370;2023-02-01T06:28:56;86404.00;;;20.40
74536;BMP180;63013;51.104;-115.370;2023-02-01T06:31:23;86406.40;;;20.40
74536;BMP180;63013;51.104;-115.370;2023-02-01T06:33:52;86415.00;;;20.40
74536;BMP180;63013;51.104;-115.370;2023-02-01T06:36:20;86412.40;;;20.34
74536;BMP180;63013;51.104;-115.370;2023-02-01T06:38:48;86409.40;;;20.30
74536;BMP180;63013;51.104;-115.370;2023-02-01T06:41:16;86411.60;;;20.30
74536;BMP180;63013;51.104;-115.370;2023-02-01T06:43:43;86426.80;;;20.30
74536;BMP180;63013;51.104;-115.370;2023-02-01T06:46:13;86439.60;;;20.30
74536;BMP180;63013;51.104;-115.370;2023-02-01T06:48:44;86439.20;;;20.30
74536;BMP180;63013;51.104;-115.370;2023-02-01T06:51:25;86417.40;;;20.28
74536;BMP180;63013;51.104;-115.370;2023-02-01T06:53:57;86421.80;;;20.20
74536;BMP180;63013;51.104;-115.370;2023-02-01T06:56:30;86432.80;;;20.20
74536;BMP180;63013;51.104;-115.370;2023-02-01T06:59:05;86419.00;;;20.20
74536;BMP180;63013;51.104;-115.370;2023-02-01T07:01:33;86431.00;;;20.20
74536;BMP180;63013;51.104;-115.370;2023-02-01T07:04:01;86442.60;;;20.20
74536;BMP180;63013;51.104;-115.370;2023-02-01T07:06:28;86436.80;;;20.12
74536;BMP180;63013;51.104;-115.370;2023-02-01T07:08:57;86439.60;;;20.10
74536;BMP180;63013;51.104;-115.370;2023-02-01T07:11:24;86447.40;;;20.10
74536;BMP180;63013;51.104;-115.370;2023-02-01T07:13:53;86454.20;;;20.10
74536;BMP180;63013;51.104;-115.370;2023-02-01T07:16:21;86451.40;;;20.10
74536;BMP180;63013;51.104;-115.370;2023-02-01T07:18:50;86446.40;;;20.10
74536;BMP180;63013;51.104;-115.370;2023-02-01T07:21:21;86448.60;;;20.10
74536;BMP180;63013;51.104;-115.370;2023-02-01T07:24:01;86450.80;;;20.02
74536;BMP180;63013;51.104;-115.370;2023-02-01T07:26:28;86457.00;;;20.00
74536;BMP180;63013;51.104;-115.370;2023-02-01T07:28:56;86455.60;;;20.00
74536;BMP180;63013;51.104;-115.370;2023-02-01T07:31:24;86459.20;;;20.00
74536;BMP180;63013;51.104;-115.370;2023-02-01T07:33:52;86454.80;;;20.00
74536;BMP180;63013;51.104;-115.370;2023-02-01T07:36:24;86463.00;;;19.90
74536;BMP180;63013;51.104;-115.370;2023-02-01T07:38:51;86467.20;;;19.90
74536;BMP180;63013;51.104;-115.370;2023-02-01T07:41:21;86454.60;;;19.90
74536;BMP180;63013;51.104;-115.370;2023-02-01T07:43:49;86469.20;;;19.90
74536;BMP180;63013;51.104;-115.370;2023-02-01T07:46:18;86463.40;;;19.90
74536;BMP180;63013;51.104;-115.370;2023-02-01T07:48:45;86464.20;;;19.90
74536;BMP180;63013;51.104;-115.370;2023-02-01T07:51:16;86459.40;;;19.88
74536;BMP180;63013;51.104;-115.370;2023-02-01T07:53:44;86455.20;;;19.86
74536;BMP180;63013;51.104;-115.370;2023-02-01T07:56:15;86474.00;;;19.80
74536;BMP180;63013;51.104;-115.370;2023-02-01T07:58:42;86470.00;;;19.80
74536;BMP180;63013;51.104;-115.370;2023-02-01T08:01:22;86469.60;;;19.80
74536;BMP180;63013;51.104;-115.370;2023-02-01T08:03:58;86469.60;;;19.80
74536;BMP180;63013;51.104;-115.370;2023-02-01T08:06:28;86464.00;;;19.80
74536;BMP180;63013;51.104;-115.370;2023-02-01T08:08:56;86475.20;;;19.78
74536;BMP180;63013;51.104;-115.370;2023-02-01T08:11:25;86472.80;;;19.74
74536;BMP180;63013;51.104;-115.370;2023-02-01T08:13:53;86474.40;;;19.70
74536;BMP180;63013;51.104;-115.370;2023-02-01T08:16:21;86478.60;;;19.70
74536;BMP180;63013;51.104;-115.370;2023-02-01T08:18:49;86471.00;;;19.70
74536;BMP180;63013;51.104;-115.370;2023-02-01T08:21:23;86468.00;;;19.70
74536;BMP180;63013;51.104;-115.370;2023-02-01T08:23:51;86470.40;;;19.70
74536;BMP180;63013;51.104;-115.370;2023-02-01T08:26:24;86468.40;;;19.62
74536;BMP180;63013;51.104;-115.370;2023-02-01T08:28:57;86463.40;;;19.60
74536;BMP180;63013;51.104;-115.370;2023-02-01T08:31:32;86463.60;;;19.60
74536;BMP180;63013;51.104;-115.370;2023-02-01T08:34:09;86464.60;;;19.60
74536;BMP180;63013;51.104;-115.370;2023-02-01T08:36:47;86458.60;;;19.60
74536;BMP180;63013;51.104;-115.370;2023-02-01T08:39:29;86462.20;;;19.60
74536;BMP180;63013;51.104;-115.370;2023-02-01T08:41:56;86450.40;;;19.58
74536;BMP180;63013;51.104;-115.370;2023-02-01T08:44:41;86446.60;;;19.50
74536;BMP180;63013;51.104;-115.370;2023-02-01T08:47:08;86452.20;;;19.50
74536;BMP180;63013;51.104;-115.370;2023-02-01T08:49:36;86458.00;;;19.50
74536;BMP180;63013;51.104;-115.370;2023-02-01T08:52:03;86457.40;;;19.50
74536;BMP180;63013;51.104;-115.370;2023-02-01T08:54:30;86459.00;;;19.50
74536;BMP180;63013;51.104;-115.370;2023-02-01T08:56:57;86448.80;;;19.50
74536;BMP180;63013;51.104;-115.370;2023-02-01T08:59:24;86445.20;;;19.40
74536;BMP180;63013;51.104;-115.370;2023-02-01T09:01:52;86441.80;;;19.40
74536;BMP180;63013;51.104;-115.370;2023-02-01T09:04:19;86424.00;;;19.40
74536;BMP180;63013;51.104;-115.370;2023-02-01T09:06:46;86421.40;;;19.40
74536;BMP180;63013;51.104;-115.370;2023-02-01T09:09:13;86442.80;;;19.40
74536;BMP180;63013;51.104;-115.370;2023-02-01T09:11:40;86458.40;;;19.30
74536;BMP180;63013;51.104;-115.370;2023-02-01T09:14:07;86455.20;;;19.30
74536;BMP180;63013;51.104;-115.370;2023-02-01T09:16:34;86450.00;;;19.30
74536;BMP180;63013;51.104;-115.370;2023-02-01T09:19:01;86456.40;;;19.30
74536;BMP180;63013;51.104;-115.370;2023-02-01T09:21:29;86455.00;;;19.30
74536;BMP180;63013;51.104;-115.370;2023-02-01T09:23:56;86452.80;;;19.28
74536;BMP180;63013;51.104;-115.370;2023-02-01T09:26:23;86460.00;;;19.22
74536;BMP180;63013;51.104;-115.370;2023-02-01T09:28:52;86466.40;;;19.20
74536;BMP180;63013;51.104;-115.370;2023-02-01T09:31:19;86466.60;;;19.20
74536;BMP180;63013;51.104;-115.370;2023-02-01T09:33:46;86465.60;;;19.20
74536;BMP180;63013;51.104;-115.370;2023-02-01T09:36:14;86469.60;;;19.20
74536;BMP180;63013;51.104;-115.370;2023-02-01T09:38:41;86465.00;;;19.20
74536;BMP180;63013;51.104;-115.370;2023-02-01T09:47:24;86463.60;;;19.10
74536;BMP180;63013;51.104;-115.370;2023-02-01T09:50:11;86464.20;;;19.10
74536;BMP180;63013;51.104;-115.370;2023-02-01T09:56:23;86468.20;;;19.10
74536;BMP180;63013;51.104;-115.370;2023-02-01T09:59:04;86467.20;;;19.10
74536;BMP180;63013;51.104;-115.370;2023-02-01T10:01:35;86467.20;;;19.00
74536;BMP180;63013;51.104;-115.370;2023-02-01T10:04:12;86477.00;;;19.00
74536;BMP180;63013;51.104;-115.370;2023-02-01T10:17:58;86473.20;;;18.90
74536;BMP180;63013;51.104;-115.370;2023-02-01T10:21:09;86475.60;;;18.90
74536;BMP180;63013;51.104;-115.370;2023-02-01T10:26:38;86479.60;;;18.90
74536;BMP180;63013;51.104;-115.370;2023-02-01T10:29:20;86490.20;;;18.88
74536;BMP180;63013;51.104;-115.370;2023-02-01T10:31:49;86484.00;;;18.80
74536;BMP180;63013;51.104;-115.370;2023-02-01T10:34:26;86489.00;;;18.80
74536;BMP180;63013;51.104;-115.370;2023-02-01T10:37:23;86488.40;;;18.80
74536;BMP180;63013;51.104;-115.370;2023-02-01T10:39:53;86490.80;;;18.80
74536;BMP180;63013;51.104;-115.370;2023-02-01T10:42:32;86497.40;;;18.76
74536;BMP180;63013;51.104;-115.370;2023-02-01T10:45:02;86493.40;;;18.70
74536;BMP180;63013;51.104;-115.370;2023-02-01T10:47:30;86488.60;;;18.70
74536;BMP180;63013;51.104;-115.370;2023-02-01T10:53:25;86491.40;;;18.70
74536;BMP180;63013;51.104;-115.370;2023-02-01T10:55:56;86490.60;;;18.70
74536;BMP180;63013;51.104;-115.370;2023-02-01T10:58:31;86487.40;;;18.70
74536;BMP180;63013;51.104;-115.370;2023-02-01T11:01:03;86490.60;;;18.70
74536;BMP180;63013;51.104;-115.370;2023-02-01T11:03:41;86474.80;;;18.60
74536;BMP180;63013;51.104;-115.370;2023-02-01T11:16:59;86493.60;;;18.58
74536;BMP180;63013;51.104;-115.370;2023-02-01T11:19:30;86489.20;;;18.50
74536;BMP180;63013;51.104;-115.370;2023-02-01T11:21:59;86490.80;;;18.50
74536;BMP180;63013;51.104;-115.370;2023-02-01T11:24:36;86479.80;;;18.50
74536;BMP180;63013;51.104;-115.370;2023-02-01T11:27:14;86484.60;;;18.50
74536;BMP180;63013;51.104;-115.370;2023-02-01T11:29:46;86484.80;;;18.50
74536;BMP180;63013;51.104;-115.370;2023-02-01T11:32:18;86482.60;;;18.50
74536;BMP180;63013;51.104;-115.370;2023-02-01T11:34:59;86484.20;;;18.40
74536;BMP180;63013;51.104;-115.370;2023-02-01T11:37:57;86475.60;;;18.40
74536;BMP180;63013;51.104;-115.370;2023-02-01T11:40:35;86469.60;;;18.40
74536;BMP180;63013;51.104;-115.370;2023-02-01T11:43:22;86479.80;;;18.40
74536;BMP180;63013;51.104;-115.370;2023-02-01T11:46:02;86477.20;;;18.40
74536;BMP180;63013;51.104;-115.370;2023-02-01T11:48:32;86482.40;;;18.40
74536;BMP180;63013;51.104;-115.370;2023-02-01T11:51:37;86477.80;;;18.40
74536;BMP180;63013;51.104;-115.370;2023-02-01T11:58:17;86482.20;;;18.34
74536;BMP180;63013;51.104;-115.370;2023-02-01T12:14:06;86494.40;;;18.22
74536;BMP180;63013;51.104;-115.370;2023-02-01T12:16:51;86496.60;;;18.20
74536;BMP180;63013;51.104;-115.370;2023-02-01T12:19:54;86495.40;;;18.20
74536;BMP180;63013;51.104;-115.370;2023-02-01T12:40:47;86497.00;;;18.10
74536;BMP180;63013;51.104;-115.370;2023-02-01T12:46:17;86485.20;;;18.10
74536;BMP180;63013;51.104;-115.370;2023-02-01T12:49:19;86482.40;;;18.10
74536;BMP180;63013;51.104;-115.370;2023-02-01T12:52:05;86490.20;;;18.08
74536;BMP180;63013;51.104;-115.370;2023-02-01T12:57:23;86485.40;;;18.00
74536;BMP180;63013;51.104;-115.370;2023-02-01T13:03:07;86486.60;;;18.00
74536;BMP180;63013;51.104;-115.370;2023-02-01T13:08:38;86478.40;;;17.92
74536;BMP180;63013;51.104;-115.370;2023-02-01T13:11:33;86479.80;;;17.90
74536;BMP180;63013;51.104;-115.370;2023-02-01T13:17:15;86474.80;;;17.90
74536;BMP180;63013;51.104;-115.370;2023-02-01T13:22:40;86477.20;;;17.90
74536;BMP180;63013;51.104;-115.370;2023-02-01T13:25:29;86475.60;;;17.90
74536;BMP180;63013;51.104;-115.370;2023-02-01T13:28:16;86472.40;;;17.88
74536;BMP180;63013;51.104;-115.370;2023-02-01T13:31:07;86477.20;;;17.80
74536;BMP180;63013;51.104;-115.370;2023-02-01T13:43:10;86488.40;;;17.90
74536;BMP180;63013;51.104;-115.370;2023-02-01T13:45:47;86488.20;;;17.90
74536;BMP180;63013;51.104;-115.370;2023-02-01T13:48:23;86480.00;;;17.98
74536;BMP180;63013;51.104;-115.370;2023-02-01T13:50:58;86483.60;;;18.00
74536;BMP180;63013;51.104;-115.370;2023-02-01T13:53:36;86476.40;;;18.00
74536;BMP180;63013;51.104;-115.370;2023-02-01T13:56:19;86481.80;;;18.10
74536;BMP180;63013;51.104;-115.370;2023-02-01T13:58:49;86472.00;;;18.10
74536;BMP180;63013;51.104;-115.370;2023-02-01T14:04:04;86474.60;;;18.20
74536;BMP180;63013;51.104;-115.370;2023-02-01T14:06:41;86469.80;;;18.22
74536;BMP180;63013;51.104;-115.370;2023-02-01T14:09:39;86470.80;;;18.30
74536;BMP180;63013;51.104;-115.370;2023-02-01T14:12:48;86466.60;;;18.40
74536;BMP180;63013;51.104;-115.370;2023-02-01T14:15:26;86465.60;;;18.40
74536;BMP180;63013;51.104;-115.370;2023-02-01T14:17:58;86466.40;;;18.46
74536;BMP180;63013;51.104;-115.370;2023-02-01T14:20:44;86461.80;;;18.50
74536;BMP180;63013;51.104;-115.370;2023-02-01T14:23:22;86462.60;;;18.52
74536;BMP180;63013;51.104;-115.370;2023-02-01T14:26:04;86461.20;;;18.60
74536;BMP180;63013;51.104;-115.370;2023-02-01T14:29:24;86460.40;;;18.60
74536;BMP180;63013;51.104;-115.370;2023-02-01T14:31:35;86465.40;;;18.70
74536;BMP180;63013;51.104;-115.370;2023-02-01T14:37:24;86474.80;;;18.80
74536;BMP180;63013;51.104;-115.370;2023-02-01T14:39:59;86470.40;;;18.80
74536;BMP180;63013;51.104;-115.370;2023-02-01T14:42:42;86478.40;;;18.90
74536;BMP180;63013;51.104;-115.370;2023-02-01T14:50:45;86473.40;;;19.00
74536;BMP180;63013;51.104;-115.370;2023-02-01T14:53:18;86485.80;;;19.10
74536;BMP180;63013;51.104;-115.370;2023-02-01T14:56:06;86486.80;;;19.10
74536;BMP180;63013;51.104;-115.370;2023-02-01T14:58:56;86491.40;;;19.20
74536;BMP180;63013;51.104;-115.370;2023-02-01T15:01:39;86495.60;;;19.20
74536;BMP180;63013;51.104;-115.370;2023-02-01T15:04:19;86492.20;;;19.28
74536;BMP180;63013;51.104;-115.370;2023-02-01T15:06:57;86495.80;;;19.30
74536;BMP180;63013;51.104;-115.370;2023-02-01T15:09:47;86491.00;;;19.36
74536;BMP180;63013;51.104;-115.370;2023-02-01T15:12:23;86498.00;;;19.40
74536;BMP180;63013;51.104;-115.370;2023-02-01T15:17:59;86502.00;;;19.50
74536;BMP180;63013;51.104;-115.370;2023-02-01T15:20:33;86502.80;;;19.52
74536;BMP180;63013;51.104;-115.370;2023-02-01T15:23:14;86499.40;;;19.60
74536;BMP180;63013;51.104;-115.370;2023-02-01T15:25:46;86504.80;;;19.60
74536;BMP180;63013;51.104;-115.370;2023-02-01T15:28:16;86510.60;;;19.70
74536;BMP180;63013;51.104;-115.370;2023-02-01T15:31:02;86515.80;;;19.70
74536;BMP180;63013;51.104;-115.370;2023-02-01T15:33:31;86518.00;;;19.80
74536;BMP180;63013;51.104;-115.370;2023-02-01T15:36:16;86522.20;;;19.80
74536;BMP180;63013;51.104;-115.370;2023-02-01T15:38:44;86513.00;;;19.88
74536;BMP180;63013;51.104;-115.370;2023-02-01T15:41:15;86514.00;;;19.90
74536;BMP180;63013;51.104;-115.370;2023-02-01T15:46:39;86519.80;;;20.00
74536;BMP180;63013;51.104;-115.370;2023-02-01T15:51:54;86526.20;;;20.10
74536;BMP180;63013;51.104;-115.370;2023-02-01T15:54:39;86531.20;;;20.20
74536;BMP180;63013;51.104;-115.370;2023-02-01T15:57:08;86532.60;;;20.20
74536;BMP180;63013;51.104;-115.370;2023-02-01T15:59:44;86535.80;;;20.30
74536;BMP180;63013;51.104;-115.370;2023-02-01T16:05:22;86534.00;;;20.40
74536;BMP180;63013;51.104;-115.370;2023-02-01T16:10:43;86533.20;;;20.50
74536;BMP180;63013;51.104;-115.370;2023-02-01T16:13:13;86547.60;;;20.60
74536;BMP180;63013;51.104;-115.370;2023-02-01T16:15:41;86536.20;;;20.60
74536;BMP180;63013;51.104;-115.370;2023-02-01T16:18:12;86545.40;;;20.62
74536;BMP180;63013;51.104;-115.370;2023-02-01T16:20:42;86542.20;;;20.70
74536;BMP180;63013;51.104;-115.370;2023-02-01T16:23:10;86545.40;;;20.70
74536;BMP180;63013;51.104;-115.370;2023-02-01T16:25:38;86545.60;;;20.70
74536;BMP180;63013;51.104;-115.370;2023-02-01T16:28:05;86546.20;;;20.80
74536;BMP180;63013;51.104;-115.370;2023-02-01T16:30:33;86542.40;;;20.80
74536;BMP180;63013;51.104;-115.370;2023-02-01T16:33:02;86548.00;;;20.80
74536;BMP180;63013;51.104;-115.370;2023-02-01T16:35:39;86540.80;;;20.80
74536;BMP180;63013;51.104;-115.370;2023-02-01T16:38:15;86541.40;;;20.80
74536;BMP180;63013;51.104;-115.370;2023-02-01T16:40:46;86542.60;;;20.80
74536;BMP180;63013;51.104;-115.370;2023-02-01T16:43:23;86547.60;;;20.80
74536;BMP180;63013;51.104;-115.370;2023-02-01T16:45:53;86541.20;;;20.90